sensor_id;sensor_type;location;lat;lon;timestamp;P1;durP1;ratioP1;P2;durP2;ratioP2
13228;SDS011;6680;53.220;10.402;2023-05-07T00:00:54;9.33;;;5.50;;
13228;SDS011;6680;53.220;10.402;2023-05-07T00:03:23;7.63;;;4.97;;
13228;SDS011;6680;53.220;10.402;2023-05-07T00:05:49;7.07;;;5.20;;
13228;SDS011;6680;53.220;10.402;2023-05-07T00:08:17;5.97;;;4.73;;
13228;SDS011;6680;53.220;10.402;2023-05-07T00:10:45;5.93;;;4.77;;
13228;SDS011;6680;53.220;10.402;2023-05-07T00:13:12;6.90;;;5.33;;
13228;SDS011;6680;53.220;10.402;2023-05-07T00:15:39;7.00;;;5.23;;
13228;SDS011;6680;53.220;10.402;2023-05-07T00:18:05;6.00;;;4.73;;
13228;SDS011;6680;53.220;10.402;2023-05-07T00:20:33;6.47;;;5.30;;
13228;SDS011;6680;53.220;10.402;2023-05-07T00:23:00;6.90;;;5.47;;
13228;SDS011;6680;53.220;10.402;2023-05-07T00:25:27;7.23;;;5.20;;
13228;SDS011;6680;53.220;10.402;2023-05-07T00:27:53;6.17;;;4.83;;
13228;SDS011;6680;53.220;10.402;2023-05-07T00:30:20;5.47;;;4.67;;
13228;SDS011;6680;53.220;10.402;2023-05-07T00:32:47;6.47;;;5.17;;
13228;SDS011;6680;53.220;10.402;2023-05-07T00:35:15;6.30;;;5.60;;
13228;SDS011;6680;53.220;10.402;2023-05-07T00:37:43;7.50;;;5.20;;
13228;SDS011;6680;53.220;10.402;2023-05-07T00:40:10;6.83;;;5.37;;
13228;SDS011;6680;53.220;10.402;2023-05-07T00:42:37;7.60;;;5.63;;
13228;SDS011;6680;53.220;10.402;2023-05-07T00:45:04;6.83;;;5.43;;
13228;SDS011;6680;53.220;10.402;2023-05-07T00:47:32;6.50;;;5.60;;
13228;SDS011;6680;53.220;10.402;2023-05-07T00:49:59;7.83;;;5.63;;
13228;SDS011;6680;53.220;10.402;2023-05-07T00:52:26;5.50;;;4.30;;
13228;SDS011;6680;53.220;10.402;2023-05-07T00:54:56;5.67;;;5.03;;
13228;SDS011;6680;53.220;10.402;2023-05-07T00:57:23;6.43;;;5.17;;
13228;SDS011;6680;53.220;10.402;2023-05-07T00:59:51;6.37;;;5.10;;
13228;SDS011;6680;53.220;10.402;2023-05-07T01:02:18;6.90;;;5.60;;
13228;SDS011;6680;53.220;10.402;2023-05-07T01:04:44;7.73;;;5.30;;
13228;SDS011;6680;53.220;10.402;2023-05-07T01:07:11;6.00;;;5.37;;
13228;SDS011;6680;53.220;10.402;2023-05-07T01:09:38;8.97;;;5.07;;
13228;SDS011;6680;53.220;10.402;2023-05-07T01:12:07;6.13;;;5.33;;
13228;SDS011;6680;53.220;10.402;2023-05-07T01:14:34;6.30;;;5.27;;
13228;SDS011;6680;53.220;10.402;2023-05-07T01:17:01;6.67;;;5.23;;
13228;SDS011;6680;53.220;10.402;2023-05-07T01:19:28;7.23;;;6.23;;
13228;SDS011;6680;53.220;10.402;2023-05-07T01:21:57;5.70;;;5.10;;
13228;SDS011;6680;53.220;10.402;2023-05-07T01:24:30;6.37;;;5.10;;
13228;SDS011;6680;53.220;10.402;2023-05-07T01:26:57;7.10;;;5.50;;
13228;SDS011;6680;53.220;10.402;2023-05-07T01:29:26;6.60;;;5.93;;
13228;SDS011;6680;53.220;10.402;2023-05-07T01:31:53;6.00;;;5.00;;
13228;SDS011;6680;53.220;10.402;2023-05-07T01:34:20;7.37;;;5.67;;
13228;SDS011;6680;53.220;10.402;2023-05-07T01:36:48;7.90;;;6.30;;
13228;SDS011;6680;53.220;10.402;2023-05-07T01:39:15;6.17;;;5.23;;
13228;SDS011;6680;53.220;10.402;2023-05-07T01:41:44;5.87;;;4.93;;
13228;SDS011;6680;53.220;10.402;2023-05-07T01:44:11;5.83;;;4.90;;
13228;SDS011;6680;53.220;10.402;2023-05-07T01:46:39;7.23;;;5.37;;
13228;SDS011;6680;53.220;10.402;2023-05-07T01:49:06;5.67;;;4.93;;
13228;SDS011;6680;53.220;10.402;2023-05-07T01:51:33;6.27;;;5.37;;
13228;SDS011;6680;53.220;10.402;2023-05-07T01:54:00;6.53;;;5.37;;
13228;SDS011;6680;53.220;10.402;2023-05-07T01:56:27;7.60;;;5.27;;
13228;SDS011;6680;53.220;10.402;2023-05-07T01:58:55;9.07;;;6.10;;
13228;SDS011;6680;53.220;10.402;2023-05-07T02:01:21;8.10;;;5.37;;
13228;SDS011;6680;53.220;10.402;2023-05-07T02:03:48;7.33;;;5.43;;
13228;SDS011;6680;53.220;10.402;2023-05-07T02:06:15;8.57;;;5.70;;
13228;SDS011;6680;53.220;10.402;2023-05-07T02:08:41;6.53;;;5.47;;
13228;SDS011;6680;53.220;10.402;2023-05-07T02:11:08;7.37;;;5.90;;
13228;SDS011;6680;53.220;10.402;2023-05-07T02:13:35;7.50;;;6.13;;
13228;SDS011;6680;53.220;10.402;2023-05-07T02:16:04;6.67;;;5.63;;
13228;SDS011;6680;53.220;10.402;2023-05-07T02:18:31;7.50;;;5.70;;
13228;SDS011;6680;53.220;10.402;2023-05-07T02:20:58;6.93;;;5.97;;
13228;SDS011;6680;53.220;10.402;2023-05-07T02:23:25;8.33;;;6.20;;
13228;SDS011;6680;53.220;10.402;2023-05-07T02:25:51;8.13;;;6.17;;
13228;SDS011;6680;53.220;10.402;2023-05-07T02:28:18;8.90;;;7.10;;
13228;SDS011;6680;53.220;10.402;2023-05-07T02:30:44;7.43;;;5.83;;
13228;SDS011;6680;53.220;10.402;2023-05-07T02:33:12;8.13;;;6.33;;
13228;SDS011;6680;53.220;10.402;2023-05-07T02:35:39;8.80;;;6.47;;
13228;SDS011;6680;53.220;10.402;2023-05-07T02:38:06;8.40;;;6.00;;
13228;SDS011;6680;53.220;10.402;2023-05-07T02:40:35;7.47;;;5.90;;
13228;SDS011;6680;53.220;10.402;2023-05-07T02:43:03;7.73;;;6.40;;
13228;SDS011;6680;53.220;10.402;2023-05-07T02:45:30;8.33;;;5.83;;
13228;SDS011;6680;53.220;10.402;2023-05-07T02:47:57;8.17;;;6.00;;
13228;SDS011;6680;53.220;10.402;2023-05-07T02:50:25;6.00;;;5.33;;
13228;SDS011;6680;53.220;10.402;2023-05-07T02:52:52;8.20;;;6.53;;
13228;SDS011;6680;53.220;10.402;2023-05-07T02:55:19;7.63;;;6.03;;
13228;SDS011;6680;53.220;10.402;2023-05-07T02:57:46;8.17;;;5.87;;
13228;SDS011;6680;53.220;10.402;2023-05-07T03:00:13;7.53;;;5.93;;
13228;SDS011;6680;53.220;10.402;2023-05-07T03:02:41;9.33;;;6.23;;
13228;SDS011;6680;53.220;10.402;2023-05-07T03:05:08;7.27;;;6.07;;
13228;SDS011;6680;53.220;10.402;2023-05-07T03:07:36;8.27;;;6.50;;
13228;SDS011;6680;53.220;10.402;2023-05-07T03:10:03;8.40;;;5.93;;
13228;SDS011;6680;53.220;10.402;2023-05-07T03:12:30;9.30;;;6.50;;
13228;SDS011;6680;53.220;10.402;2023-05-07T03:14:57;7.90;;;5.90;;
13228;SDS011;6680;53.220;10.402;2023-05-07T03:17:24;8.40;;;6.70;;
13228;SDS011;6680;53.220;10.402;2023-05-07T03:19:50;8.63;;;6.40;;
13228;SDS011;6680;53.220;10.402;2023-05-07T03:22:17;7.70;;;6.30;;
13228;SDS011;6680;53.220;10.402;2023-05-07T03:24:45;8.27;;;6.07;;
13228;SDS011;6680;53.220;10.402;2023-05-07T03:27:11;8.13;;;5.70;;
13228;SDS011;6680;53.220;10.402;2023-05-07T03:29:38;9.10;;;6.17;;
13228;SDS011;6680;53.220;10.402;2023-05-07T03:32:05;7.17;;;5.87;;
13228;SDS011;6680;53.220;10.402;2023-05-07T03:34:32;10.07;;;6.63;;
13228;SDS011;6680;53.220;10.402;2023-05-07T03:36:58;8.30;;;6.47;;
13228;SDS011;6680;53.220;10.402;2023-05-07T03:39:25;8.90;;;6.50;;
13228;SDS011;6680;53.220;10.402;2023-05-07T03:41:53;10.47;;;6.73;;
13228;SDS011;6680;53.220;10.402;2023-05-07T03:44:20;8.13;;;6.20;;
13228;SDS011;6680;53.220;10.402;2023-05-07T03:46:47;8.53;;;6.43;;
13228;SDS011;6680;53.220;10.402;2023-05-07T03:49:13;9.47;;;6.37;;
13228;SDS011;6680;53.220;10.402;2023-05-07T03:51:40;7.57;;;6.20;;
13228;SDS011;6680;53.220;10.402;2023-05-07T03:54:07;7.90;;;5.97;;
13228;SDS011;6680;53.220;10.402;2023-05-07T03:56:34;7.87;;;6.00;;
13228;SDS011;6680;53.220;10.402;2023-05-07T03:59:02;8.50;;;6.57;;
13228;SDS011;6680;53.220;10.402;2023-05-07T04:01:28;10.93;;;6.80;;
13228;SDS011;6680;53.220;10.402;2023-05-07T04:03:55;8.50;;;6.00;;
13228;SDS011;6680;53.220;10.402;2023-05-07T04:06:22;9.10;;;6.37;;
13228;SDS011;6680;53.220;10.402;2023-05-07T04:08:49;12.03;;;6.73;;
13228;SDS011;6680;53.220;10.402;2023-05-07T04:11:15;8.73;;;6.67;;
13228;SDS011;6680;53.220;10.402;2023-05-07T04:13:42;7.87;;;5.80;;
13228;SDS011;6680;53.220;10.402;2023-05-07T04:16:10;8.57;;;6.30;;
13228;SDS011;6680;53.220;10.402;2023-05-07T04:18:37;8.73;;;7.07;;
13228;SDS011;6680;53.220;10.402;2023-05-07T04:21:04;8.40;;;6.47;;
13228;SDS011;6680;53.220;10.402;2023-05-07T04:23:31;8.90;;;6.20;;
13228;SDS011;6680;53.220;10.402;2023-05-07T04:25:58;8.60;;;6.73;;
13228;SDS011;6680;53.220;10.402;2023-05-07T04:28:25;11.03;;;6.70;;
13228;SDS011;6680;53.220;10.402;2023-05-07T04:30:52;8.60;;;5.97;;
13228;SDS011;6680;53.220;10.402;2023-05-07T04:33:20;8.30;;;6.47;;
13228;SDS011;6680;53.220;10.402;2023-05-07T04:35:47;7.90;;;6.47;;
13228;SDS011;6680;53.220;10.402;2023-05-07T04:38:13;7.80;;;6.37;;
13228;SDS011;6680;53.220;10.402;2023-05-07T04:40:41;8.37;;;6.20;;
13228;SDS011;6680;53.220;10.402;2023-05-07T04:43:08;8.73;;;5.73;;
13228;SDS011;6680;53.220;10.402;2023-05-07T04:45:34;8.20;;;5.83;;
13228;SDS011;6680;53.220;10.402;2023-05-07T04:48:01;6.67;;;5.67;;
13228;SDS011;6680;53.220;10.402;2023-05-07T04:50:29;8.67;;;6.07;;
13228;SDS011;6680;53.220;10.402;2023-05-07T04:52:56;7.00;;;5.90;;
13228;SDS011;6680;53.220;10.402;2023-05-07T04:55:23;7.23;;;5.90;;
13228;SDS011;6680;53.220;10.402;2023-05-07T04:57:49;9.13;;;5.83;;
13228;SDS011;6680;53.220;10.402;2023-05-07T05:00:16;7.37;;;5.47;;
13228;SDS011;6680;53.220;10.402;2023-05-07T05:02:44;8.43;;;6.00;;
13228;SDS011;6680;53.220;10.402;2023-05-07T05:05:11;8.03;;;6.13;;
13228;SDS011;6680;53.220;10.402;2023-05-07T05:07:39;6.30;;;5.57;;
13228;SDS011;6680;53.220;10.402;2023-05-07T05:10:06;6.40;;;5.50;;
13228;SDS011;6680;53.220;10.402;2023-05-07T05:12:33;10.60;;;6.43;;
13228;SDS011;6680;53.220;10.402;2023-05-07T05:14:59;6.97;;;5.77;;
13228;SDS011;6680;53.220;10.402;2023-05-07T05:17:26;6.10;;;4.90;;
13228;SDS011;6680;53.220;10.402;2023-05-07T05:19:53;7.53;;;6.33;;
13228;SDS011;6680;53.220;10.402;2023-05-07T05:22:19;11.23;;;6.23;;
13228;SDS011;6680;53.220;10.402;2023-05-07T05:24:47;8.30;;;6.10;;
13228;SDS011;6680;53.220;10.402;2023-05-07T05:27:14;8.43;;;6.13;;
13228;SDS011;6680;53.220;10.402;2023-05-07T05:29:41;8.30;;;5.60;;
13228;SDS011;6680;53.220;10.402;2023-05-07T05:32:07;8.33;;;6.27;;
13228;SDS011;6680;53.220;10.402;2023-05-07T05:34:34;9.97;;;5.90;;
13228;SDS011;6680;53.220;10.402;2023-05-07T05:37:01;8.70;;;5.93;;
13228;SDS011;6680;53.220;10.402;2023-05-07T05:39:28;7.83;;;6.37;;
13228;SDS011;6680;53.220;10.402;2023-05-07T05:41:57;8.97;;;6.00;;
13228;SDS011;6680;53.220;10.402;2023-05-07T05:44:23;10.20;;;6.50;;
13228;SDS011;6680;53.220;10.402;2023-05-07T05:46:50;9.00;;;6.10;;
13228;SDS011;6680;53.220;10.402;2023-05-07T05:49:19;6.07;;;5.30;;
13228;SDS011;6680;53.220;10.402;2023-05-07T05:51:46;8.70;;;5.30;;
13228;SDS011;6680;53.220;10.402;2023-05-07T05:54:12;7.17;;;5.47;;
13228;SDS011;6680;53.220;10.402;2023-05-07T05:56:40;6.37;;;5.53;;
13228;SDS011;6680;53.220;10.402;2023-05-07T05:59:10;10.60;;;5.60;;
13228;SDS011;6680;53.220;10.402;2023-05-07T06:01:36;7.23;;;5.50;;
13228;SDS011;6680;53.220;10.402;2023-05-07T06:04:03;9.83;;;5.90;;
13228;SDS011;6680;53.220;10.402;2023-05-07T06:06:30;8.23;;;6.03;;
13228;SDS011;6680;53.220;10.402;2023-05-07T06:08:57;7.60;;;5.57;;
13228;SDS011;6680;53.220;10.402;2023-05-07T06:11:24;8.70;;;5.73;;
13228;SDS011;6680;53.220;10.402;2023-05-07T06:13:50;8.43;;;5.50;;
13228;SDS011;6680;53.220;10.402;2023-05-07T06:16:18;10.17;;;6.03;;
13228;SDS011;6680;53.220;10.402;2023-05-07T06:18:45;9.40;;;5.57;;
13228;SDS011;6680;53.220;10.402;2023-05-07T06:21:13;4.90;;;4.17;;
13228;SDS011;6680;53.220;10.402;2023-05-07T06:23:40;6.53;;;5.10;;
13228;SDS011;6680;53.220;10.402;2023-05-07T06:26:06;5.80;;;5.20;;
13228;SDS011;6680;53.220;10.402;2023-05-07T06:28:33;5.77;;;4.73;;
13228;SDS011;6680;53.220;10.402;2023-05-07T06:31:10;7.00;;;5.17;;
13228;SDS011;6680;53.220;10.402;2023-05-07T06:33:39;7.40;;;5.33;;
13228;SDS011;6680;53.220;10.402;2023-05-07T06:36:06;7.03;;;5.13;;
13228;SDS011;6680;53.220;10.402;2023-05-07T06:38:33;8.60;;;6.20;;
13228;SDS011;6680;53.220;10.402;2023-05-07T06:40:59;6.90;;;5.33;;
13228;SDS011;6680;53.220;10.402;2023-05-07T06:43:26;7.67;;;5.50;;
13228;SDS011;6680;53.220;10.402;2023-05-07T06:45:53;7.00;;;4.97;;
13228;SDS011;6680;53.220;10.402;2023-05-07T06:48:19;6.40;;;5.27;;
13228;SDS011;6680;53.220;10.402;2023-05-07T06:50:47;6.63;;;4.90;;
13228;SDS011;6680;53.220;10.402;2023-05-07T06:53:14;6.33;;;5.60;;
13228;SDS011;6680;53.220;10.402;2023-05-07T06:55:41;7.13;;;5.50;;
13228;SDS011;6680;53.220;10.402;2023-05-07T06:58:07;7.13;;;5.57;;
13228;SDS011;6680;53.220;10.402;2023-05-07T07:00:34;5.73;;;4.77;;
13228;SDS011;6680;53.220;10.402;2023-05-07T07:03:01;5.53;;;4.63;;
13228;SDS011;6680;53.220;10.402;2023-05-07T07:05:27;6.80;;;5.43;;
13228;SDS011;6680;53.220;10.402;2023-05-07T07:07:55;10.63;;;5.37;;
13228;SDS011;6680;53.220;10.402;2023-05-07T07:10:22;6.47;;;5.53;;
13228;SDS011;6680;53.220;10.402;2023-05-07T07:12:49;5.37;;;4.43;;
13228;SDS011;6680;53.220;10.402;2023-05-07T07:15:17;6.90;;;5.20;;
13228;SDS011;6680;53.220;10.402;2023-05-07T07:17:45;7.70;;;5.20;;
13228;SDS011;6680;53.220;10.402;2023-05-07T07:20:12;6.53;;;5.27;;
13228;SDS011;6680;53.220;10.402;2023-05-07T07:22:38;6.20;;;4.67;;
13228;SDS011;6680;53.220;10.402;2023-05-07T07:25:07;7.93;;;5.33;;
13228;SDS011;6680;53.220;10.402;2023-05-07T07:27:34;7.63;;;5.13;;
13228;SDS011;6680;53.220;10.402;2023-05-07T07:30:02;6.43;;;5.13;;
13228;SDS011;6680;53.220;10.402;2023-05-07T07:32:29;6.90;;;5.23;;
13228;SDS011;6680;53.220;10.402;2023-05-07T07:34:57;6.10;;;5.00;;
13228;SDS011;6680;53.220;10.402;2023-05-07T07:37:23;5.37;;;4.80;;
13228;SDS011;6680;53.220;10.402;2023-05-07T07:39:50;6.33;;;4.97;;
13228;SDS011;6680;53.220;10.402;2023-05-07T07:42:18;6.50;;;5.20;;
13228;SDS011;6680;53.220;10.402;2023-05-07T07:44:45;6.80;;;5.23;;
13228;SDS011;6680;53.220;10.402;2023-05-07T07:47:11;5.33;;;4.73;;
13228;SDS011;6680;53.220;10.402;2023-05-07T07:49:38;5.17;;;4.63;;
13228;SDS011;6680;53.220;10.402;2023-05-07T07:52:05;6.83;;;5.30;;
13228;SDS011;6680;53.220;10.402;2023-05-07T07:54:31;4.33;;;3.93;;
13228;SDS011;6680;53.220;10.402;2023-05-07T07:56:58;5.20;;;4.53;;
13228;SDS011;6680;53.220;10.402;2023-05-07T07:59:27;5.63;;;4.80;;
13228;SDS011;6680;53.220;10.402;2023-05-07T08:01:54;12.03;;;5.17;;
13228;SDS011;6680;53.220;10.402;2023-05-07T08:04:22;5.97;;;4.53;;
13228;SDS011;6680;53.220;10.402;2023-05-07T08:06:48;6.03;;;4.67;;
13228;SDS011;6680;53.220;10.402;2023-05-07T08:09:15;7.20;;;4.57;;
13228;SDS011;6680;53.220;10.402;2023-05-07T08:11:42;6.00;;;4.67;;
13228;SDS011;6680;53.220;10.402;2023-05-07T08:14:08;7.00;;;4.80;;
13228;SDS011;6680;53.220;10.402;2023-05-07T08:16:36;5.53;;;4.47;;
13228;SDS011;6680;53.220;10.402;2023-05-07T08:19:03;5.53;;;4.70;;
13228;SDS011;6680;53.220;10.402;2023-05-07T08:21:30;5.63;;;5.03;;
13228;SDS011;6680;53.220;10.402;2023-05-07T08:23:57;6.47;;;5.20;;
13228;SDS011;6680;53.220;10.402;2023-05-07T08:26:23;5.97;;;4.77;;
13228;SDS011;6680;53.220;10.402;2023-05-07T08:28:50;5.60;;;4.67;;
13228;SDS011;6680;53.220;10.402;2023-05-07T08:31:17;5.90;;;5.10;;
13228;SDS011;6680;53.220;10.402;2023-05-07T08:33:45;5.73;;;4.80;;
13228;SDS011;6680;53.220;10.402;2023-05-07T08:36:12;6.07;;;4.70;;
13228;SDS011;6680;53.220;10.402;2023-05-07T08:38:38;8.47;;;5.20;;
13228;SDS011;6680;53.220;10.402;2023-05-07T08:41:09;8.23;;;5.07;;
13228;SDS011;6680;53.220;10.402;2023-05-07T08:43:36;5.80;;;4.53;;
13228;SDS011;6680;53.220;10.402;2023-05-07T08:46:06;5.50;;;4.80;;
13228;SDS011;6680;53.220;10.402;2023-05-07T08:48:35;6.03;;;4.97;;
13228;SDS011;6680;53.220;10.402;2023-05-07T08:51:04;5.93;;;5.00;;
13228;SDS011;6680;53.220;10.402;2023-05-07T08:53:31;7.87;;;5.87;;
13228;SDS011;6680;53.220;10.402;2023-05-07T08:55:59;6.27;;;4.83;;
13228;SDS011;6680;53.220;10.402;2023-05-07T08:58:26;7.00;;;5.27;;
13228;SDS011;6680;53.220;10.402;2023-05-07T09:00:53;8.33;;;5.17;;
13228;SDS011;6680;53.220;10.402;2023-05-07T09:03:20;7.10;;;4.77;;
13228;SDS011;6680;53.220;10.402;2023-05-07T09:05:47;5.83;;;5.17;;
13228;SDS011;6680;53.220;10.402;2023-05-07T09:08:15;9.70;;;6.07;;
13228;SDS011;6680;53.220;10.402;2023-05-07T09:10:42;9.30;;;6.20;;
13228;SDS011;6680;53.220;10.402;2023-05-07T09:13:10;7.13;;;6.17;;
13228;SDS011;6680;53.220;10.402;2023-05-07T09:15:39;6.83;;;6.03;;
13228;SDS011;6680;53.220;10.402;2023-05-07T09:18:06;7.93;;;6.10;;
13228;SDS011;6680;53.220;10.402;2023-05-07T09:20:32;7.53;;;5.57;;
13228;SDS011;6680;53.220;10.402;2023-05-07T09:22:59;5.37;;;4.80;;
13228;SDS011;6680;53.220;10.402;2023-05-07T09:25:30;5.80;;;5.20;;
13228;SDS011;6680;53.220;10.402;2023-05-07T09:27:58;6.10;;;5.23;;
13228;SDS011;6680;53.220;10.402;2023-05-07T09:30:27;7.57;;;5.53;;
13228;SDS011;6680;53.220;10.402;2023-05-07T09:32:54;5.83;;;5.17;;
13228;SDS011;6680;53.220;10.402;2023-05-07T09:35:21;7.37;;;5.33;;
13228;SDS011;6680;53.220;10.402;2023-05-07T09:37:49;8.40;;;5.77;;
13228;SDS011;6680;53.220;10.402;2023-05-07T09:40:22;7.53;;;5.40;;
13228;SDS011;6680;53.220;10.402;2023-05-07T09:42:51;9.47;;;6.43;;
13228;SDS011;6680;53.220;10.402;2023-05-07T09:45:21;7.93;;;5.30;;
13228;SDS011;6680;53.220;10.402;2023-05-07T09:47:49;8.87;;;5.30;;
13228;SDS011;6680;53.220;10.402;2023-05-07T09:50:20;8.23;;;5.33;;
13228;SDS011;6680;53.220;10.402;2023-05-07T09:52:51;6.27;;;5.33;;
13228;SDS011;6680;53.220;10.402;2023-05-07T09:55:19;7.30;;;5.87;;
13228;SDS011;6680;53.220;10.402;2023-05-07T09:57:47;5.43;;;4.90;;
13228;SDS011;6680;53.220;10.402;2023-05-07T10:00:18;6.17;;;5.47;;
13228;SDS011;6680;53.220;10.402;2023-05-07T10:02:46;8.10;;;5.97;;
13228;SDS011;6680;53.220;10.402;2023-05-07T10:05:14;6.43;;;5.07;;
13228;SDS011;6680;53.220;10.402;2023-05-07T10:07:42;7.20;;;5.60;;
13228;SDS011;6680;53.220;10.402;2023-05-07T10:10:10;7.47;;;5.23;;
13228;SDS011;6680;53.220;10.402;2023-05-07T10:12:37;6.10;;;5.20;;
13228;SDS011;6680;53.220;10.402;2023-05-07T10:15:07;7.67;;;5.60;;
13228;SDS011;6680;53.220;10.402;2023-05-07T10:17:35;9.53;;;5.97;;
13228;SDS011;6680;53.220;10.402;2023-05-07T10:20:03;7.80;;;6.27;;
13228;SDS011;6680;53.220;10.402;2023-05-07T10:22:31;5.90;;;5.17;;
13228;SDS011;6680;53.220;10.402;2023-05-07T10:24:59;6.77;;;5.60;;
13228;SDS011;6680;53.220;10.402;2023-05-07T10:27:29;5.83;;;4.57;;
13228;SDS011;6680;53.220;10.402;2023-05-07T10:29:58;6.27;;;4.97;;
13228;SDS011;6680;53.220;10.402;2023-05-07T10:32:37;5.83;;;4.73;;
13228;SDS011;6680;53.220;10.402;2023-05-07T10:35:06;8.30;;;4.77;;
13228;SDS011;6680;53.220;10.402;2023-05-07T10:37:37;6.07;;;4.80;;
13228;SDS011;6680;53.220;10.402;2023-05-07T10:40:04;5.53;;;4.73;;
13228;SDS011;6680;53.220;10.402;2023-05-07T10:42:32;9.20;;;4.97;;
13228;SDS011;6680;53.220;10.402;2023-05-07T10:45:10;4.50;;;4.10;;
13228;SDS011;6680;53.220;10.402;2023-05-07T10:50:31;5.67;;;4.90;;
13228;SDS011;6680;53.220;10.402;2023-05-07T10:55:49;5.53;;;4.57;;
13228;SDS011;6680;53.220;10.402;2023-05-07T10:58:23;5.00;;;4.40;;
13228;SDS011;6680;53.220;10.402;2023-05-07T11:00:55;4.97;;;4.50;;
13228;SDS011;6680;53.220;10.402;2023-05-07T11:03:22;5.03;;;4.03;;
13228;SDS011;6680;53.220;10.402;2023-05-07T11:06:07;4.77;;;4.33;;
13228;SDS011;6680;53.220;10.402;2023-05-07T11:08:54;5.03;;;4.07;;
13228;SDS011;6680;53.220;10.402;2023-05-07T11:14:42;5.27;;;4.10;;
13228;SDS011;6680;53.220;10.402;2023-05-07T11:17:10;5.10;;;4.13;;
13228;SDS011;6680;53.220;10.402;2023-05-07T11:22:37;5.60;;;4.50;;
13228;SDS011;6680;53.220;10.402;2023-05-07T11:25:05;4.80;;;3.77;;
13228;SDS011;6680;53.220;10.402;2023-05-07T11:27:32;5.53;;;4.57;;
13228;SDS011;6680;53.220;10.402;2023-05-07T11:29:59;6.20;;;4.33;;
13228;SDS011;6680;53.220;10.402;2023-05-07T11:32:27;4.10;;;3.70;;
13228;SDS011;6680;53.220;10.402;2023-05-07T11:34:55;4.63;;;4.00;;
13228;SDS011;6680;53.220;10.402;2023-05-07T11:37:24;5.77;;;4.10;;
13228;SDS011;6680;53.220;10.402;2023-05-07T11:40:03;4.90;;;3.67;;
13228;SDS011;6680;53.220;10.402;2023-05-07T11:42:31;4.33;;;3.97;;
13228;SDS011;6680;53.220;10.402;2023-05-07T11:44:59;5.17;;;3.80;;
13228;SDS011;6680;53.220;10.402;2023-05-07T11:47:29;4.33;;;3.90;;
13228;SDS011;6680;53.220;10.402;2023-05-07T11:49:56;3.93;;;3.60;;
13228;SDS011;6680;53.220;10.402;2023-05-07T11:52:27;4.30;;;3.37;;
13228;SDS011;6680;53.220;10.402;2023-05-07T11:54:55;5.00;;;3.50;;
13228;SDS011;6680;53.220;10.402;2023-05-07T11:57:24;4.77;;;3.67;;
13228;SDS011;6680;53.220;10.402;2023-05-07T11:59:52;4.43;;;3.77;;
13228;SDS011;6680;53.220;10.402;2023-05-07T12:02:19;5.63;;;3.97;;
13228;SDS011;6680;53.220;10.402;2023-05-07T12:04:46;3.53;;;3.23;;
13228;SDS011;6680;53.220;10.402;2023-05-07T12:07:13;5.03;;;3.70;;
13228;SDS011;6680;53.220;10.402;2023-05-07T12:09:41;3.53;;;3.23;;
13228;SDS011;6680;53.220;10.402;2023-05-07T12:12:08;4.90;;;4.23;;
13228;SDS011;6680;53.220;10.402;2023-05-07T12:14:38;4.27;;;3.87;;
13228;SDS011;6680;53.220;10.402;2023-05-07T12:17:05;3.90;;;3.50;;
13228;SDS011;6680;53.220;10.402;2023-05-07T12:19:33;3.77;;;3.47;;
13228;SDS011;6680;53.220;10.402;2023-05-07T12:22:01;4.10;;;3.63;;
13228;SDS011;6680;53.220;10.402;2023-05-07T12:24:28;6.00;;;3.47;;
13228;SDS011;6680;53.220;10.402;2023-05-07T12:26:55;4.00;;;3.40;;
13228;SDS011;6680;53.220;10.402;2023-05-07T12:29:21;5.50;;;4.47;;
13228;SDS011;6680;53.220;10.402;2023-05-07T12:31:50;3.90;;;3.27;;
13228;SDS011;6680;53.220;10.402;2023-05-07T12:34:17;3.90;;;3.60;;
13228;SDS011;6680;53.220;10.402;2023-05-07T12:36:43;3.60;;;3.30;;
13228;SDS011;6680;53.220;10.402;2023-05-07T12:39:10;3.50;;;3.20;;
13228;SDS011;6680;53.220;10.402;2023-05-07T12:41:51;3.67;;;3.07;;
13228;SDS011;6680;53.220;10.402;2023-05-07T12:44:19;4.27;;;3.10;;
13228;SDS011;6680;53.220;10.402;2023-05-07T12:46:47;4.00;;;3.43;;
13228;SDS011;6680;53.220;10.402;2023-05-07T12:49:16;3.73;;;3.40;;
13228;SDS011;6680;53.220;10.402;2023-05-07T12:51:42;3.87;;;3.50;;
13228;SDS011;6680;53.220;10.402;2023-05-07T12:54:09;4.37;;;2.93;;
13228;SDS011;6680;53.220;10.402;2023-05-07T12:56:36;3.73;;;3.33;;
13228;SDS011;6680;53.220;10.402;2023-05-07T12:59:02;3.70;;;3.30;;
13228;SDS011;6680;53.220;10.402;2023-05-07T13:01:29;4.87;;;3.07;;
13228;SDS011;6680;53.220;10.402;2023-05-07T13:04:00;6.77;;;2.83;;
13228;SDS011;6680;53.220;10.402;2023-05-07T13:06:30;3.03;;;2.73;;
13228;SDS011;6680;53.220;10.402;2023-05-07T13:08:57;4.97;;;3.40;;
13228;SDS011;6680;53.220;10.402;2023-05-07T13:11:23;3.30;;;3.00;;
13228;SDS011;6680;53.220;10.402;2023-05-07T13:13:50;3.40;;;3.10;;
13228;SDS011;6680;53.220;10.402;2023-05-07T13:16:17;3.40;;;3.10;;
13228;SDS011;6680;53.220;10.402;2023-05-07T13:18:43;4.13;;;3.00;;
13228;SDS011;6680;53.220;10.402;2023-05-07T13:21:10;3.97;;;2.67;;
13228;SDS011;6680;53.220;10.402;2023-05-07T13:23:40;3.93;;;2.90;;
13228;SDS011;6680;53.220;10.402;2023-05-07T13:26:07;3.30;;;3.00;;
13228;SDS011;6680;53.220;10.402;2023-05-07T13:28:33;3.37;;;3.07;;
13228;SDS011;6680;53.220;10.402;2023-05-07T13:31:00;3.60;;;3.30;;
13228;SDS011;6680;53.220;10.402;2023-05-07T13:33:27;4.20;;;3.03;;
13228;SDS011;6680;53.220;10.402;2023-05-07T13:35:54;3.10;;;2.80;;
13228;SDS011;6680;53.220;10.402;2023-05-07T13:38:22;2.77;;;2.53;;
13228;SDS011;6680;53.220;10.402;2023-05-07T13:40:50;2.47;;;2.27;;
13228;SDS011;6680;53.220;10.402;2023-05-07T13:43:16;3.53;;;2.77;;
13228;SDS011;6680;53.220;10.402;2023-05-07T13:45:43;2.83;;;2.63;;
13228;SDS011;6680;53.220;10.402;2023-05-07T13:48:10;4.67;;;3.80;;
13228;SDS011;6680;53.220;10.402;2023-05-07T13:50:37;3.27;;;3.00;;
13228;SDS011;6680;53.220;10.402;2023-05-07T13:53:03;3.00;;;2.73;;
13228;SDS011;6680;53.220;10.402;2023-05-07T13:55:30;3.17;;;2.70;;
13228;SDS011;6680;53.220;10.402;2023-05-07T13:57:59;3.07;;;2.80;;
13228;SDS011;6680;53.220;10.402;2023-05-07T14:00:27;2.77;;;2.57;;
13228;SDS011;6680;53.220;10.402;2023-05-07T14:02:55;3.37;;;3.07;;
13228;SDS011;6680;53.220;10.402;2023-05-07T14:05:22;2.47;;;2.27;;
13228;SDS011;6680;53.220;10.402;2023-05-07T14:07:49;4.07;;;2.40;;
13228;SDS011;6680;53.220;10.402;2023-05-07T14:10:17;2.97;;;2.20;;
13228;SDS011;6680;53.220;10.402;2023-05-07T14:12:44;2.30;;;2.10;;
13228;SDS011;6680;53.220;10.402;2023-05-07T14:15:12;2.60;;;2.37;;
13228;SDS011;6680;53.220;10.402;2023-05-07T14:17:39;2.70;;;2.50;;
13228;SDS011;6680;53.220;10.402;2023-05-07T14:20:06;2.70;;;2.50;;
13228;SDS011;6680;53.220;10.402;2023-05-07T14:22:34;6.77;;;2.57;;
13228;SDS011;6680;53.220;10.402;2023-05-07T14:25:01;3.07;;;2.63;;
13228;SDS011;6680;53.220;10.402;2023-05-07T14:27:28;2.53;;;2.33;;
13228;SDS011;6680;53.220;10.402;2023-05-07T14:29:54;2.47;;;2.27;;
13228;SDS011;6680;53.220;10.402;2023-05-07T14:32:22;2.97;;;2.67;;
13228;SDS011;6680;53.220;10.402;2023-05-07T14:34:49;2.47;;;2.27;;
13228;SDS011;6680;53.220;10.402;2023-05-07T14:37:16;2.37;;;2.17;;
13228;SDS011;6680;53.220;10.402;2023-05-07T14:39:44;2.80;;;2.60;;
13228;SDS011;6680;53.220;10.402;2023-05-07T14:42:11;4.30;;;3.33;;
13228;SDS011;6680;53.220;10.402;2023-05-07T14:44:38;2.80;;;2.60;;
13228;SDS011;6680;53.220;10.402;2023-05-07T14:47:06;2.60;;;2.40;;
13228;SDS011;6680;53.220;10.402;2023-05-07T14:49:34;3.00;;;2.70;;
13228;SDS011;6680;53.220;10.402;2023-05-07T14:52:01;3.13;;;2.53;;
13228;SDS011;6680;53.220;10.402;2023-05-07T14:54:27;3.07;;;2.83;;
13228;SDS011;6680;53.220;10.402;2023-05-07T14:56:54;2.60;;;2.40;;
13228;SDS011;6680;53.220;10.402;2023-05-07T14:59:21;2.73;;;2.53;;
13228;SDS011;6680;53.220;10.402;2023-05-07T15:01:50;3.00;;;2.23;;